sensor_id;sensor_type;location;lat;lon;timestamp;P1;durP1;ratioP1;P2;durP2;ratioP2
32297;SDS011;18782;48.984;8.548;2023-05-02T00:01:57;3.38;;;2.80;;
32297;SDS011;18782;48.984;8.548;2023-05-02T00:04:26;4.25;;;3.30;;
32297;SDS011;18782;48.984;8.548;2023-05-02T00:06:54;4.38;;;2.92;;
32297;SDS011;18782;48.984;8.548;2023-05-02T00:09:22;3.90;;;3.05;;
32297;SDS011;18782;48.984;8.548;2023-05-02T00:11:50;3.95;;;2.97;;
32297;SDS011;18782;48.984;8.548;2023-05-02T00:14:17;3.17;;;2.88;;
32297;SDS011;18782;48.984;8.548;2023-05-02T00:16:45;4.85;;;3.58;;
32297;SDS011;18782;48.984;8.548;2023-05-02T00:19:13;4.47;;;3.13;;
32297;SDS011;18782;48.984;8.548;2023-05-02T00:21:41;3.88;;;3.00;;
32297;SDS011;18782;48.984;8.548;2023-05-02T00:24:09;3.95;;;3.50;;
32297;SDS011;18782;48.984;8.548;2023-05-02T00:26:37;3.75;;;3.33;;
32297;SDS011;18782;48.984;8.548;2023-05-02T00:29:05;4.60;;;3.22;;
32297;SDS011;18782;48.984;8.548;2023-05-02T00:31:33;4.85;;;3.50;;
32297;SDS011;18782;48.984;8.548;2023-05-02T00:34:01;5.40;;;3.53;;
32297;SDS011;18782;48.984;8.548;2023-05-02T00:36:30;3.65;;;3.35;;
32297;SDS011;18782;48.984;8.548;2023-05-02T00:38:59;3.97;;;3.22;;
32297;SDS011;18782;48.984;8.548;2023-05-02T00:41:26;4.38;;;3.42;;
32297;SDS011;18782;48.984;8.548;2023-05-02T00:43:54;3.95;;;3.45;;
32297;SDS011;18782;48.984;8.548;2023-05-02T00:46:22;4.82;;;3.67;;
32297;SDS011;18782;48.984;8.548;2023-05-02T00:48:49;5.40;;;3.75;;
32297;SDS011;18782;48.984;8.548;2023-05-02T00:51:17;4.18;;;3.78;;
32297;SDS011;18782;48.984;8.548;2023-05-02T00:53:45;5.18;;;3.65;;
32297;SDS011;18782;48.984;8.548;2023-05-02T00:56:14;3.95;;;3.55;;
32297;SDS011;18782;48.984;8.548;2023-05-02T00:58:42;4.25;;;3.83;;
32297;SDS011;18782;48.984;8.548;2023-05-02T01:01:13;5.20;;;3.67;;
32297;SDS011;18782;48.984;8.548;2023-05-02T01:03:52;5.68;;;4.20;;
32297;SDS011;18782;48.984;8.548;2023-05-02T01:06:32;5.45;;;4.13;;
32297;SDS011;18782;48.984;8.548;2023-05-02T01:09:14;4.95;;;3.60;;
32297;SDS011;18782;48.984;8.548;2023-05-02T01:11:52;4.78;;;3.60;;
32297;SDS011;18782;48.984;8.548;2023-05-02T01:14:25;7.35;;;5.15;;
32297;SDS011;18782;48.984;8.548;2023-05-02T01:16:57;4.80;;;4.30;;
32297;SDS011;18782;48.984;8.548;2023-05-02T01:19:31;6.72;;;3.97;;
32297;SDS011;18782;48.984;8.548;2023-05-02T01:22:04;4.03;;;3.58;;
32297;SDS011;18782;48.984;8.548;2023-05-02T01:24:36;4.07;;;3.40;;
32297;SDS011;18782;48.984;8.548;2023-05-02T01:27:13;4.75;;;3.60;;
32297;SDS011;18782;48.984;8.548;2023-05-02T01:29:47;4.70;;;3.65;;
32297;SDS011;18782;48.984;8.548;2023-05-02T01:32:17;5.57;;;3.47;;
32297;SDS011;18782;48.984;8.548;2023-05-02T01:34:48;4.50;;;3.33;;
32297;SDS011;18782;48.984;8.548;2023-05-02T01:37:18;4.47;;;3.22;;
32297;SDS011;18782;48.984;8.548;2023-05-02T01:39:47;4.20;;;3.53;;
32297;SDS011;18782;48.984;8.548;2023-05-02T01:42:17;5.50;;;3.95;;
32297;SDS011;18782;48.984;8.548;2023-05-02T01:44:47;4.65;;;3.60;;
32297;SDS011;18782;48.984;8.548;2023-05-02T01:47:17;5.68;;;3.92;;
32297;SDS011;18782;48.984;8.548;2023-05-02T01:49:48;7.38;;;3.42;;
32297;SDS011;18782;48.984;8.548;2023-05-02T01:52:16;4.30;;;3.03;;
32297;SDS011;18782;48.984;8.548;2023-05-02T01:54:48;4.25;;;3.33;;
32297;SDS011;18782;48.984;8.548;2023-05-02T01:57:17;4.70;;;3.58;;
32297;SDS011;18782;48.984;8.548;2023-05-02T01:59:45;4.18;;;3.30;;
32297;SDS011;18782;48.984;8.548;2023-05-02T02:02:16;5.57;;;3.80;;
32297;SDS011;18782;48.984;8.548;2023-05-02T02:04:45;6.10;;;3.53;;
32297;SDS011;18782;48.984;8.548;2023-05-02T02:07:14;6.15;;;3.95;;
32297;SDS011;18782;48.984;8.548;2023-05-02T02:09:42;4.65;;;3.50;;
32297;SDS011;18782;48.984;8.548;2023-05-02T02:12:10;5.38;;;3.28;;
32297;SDS011;18782;48.984;8.548;2023-05-02T02:14:41;3.95;;;3.13;;
32297;SDS011;18782;48.984;8.548;2023-05-02T02:17:14;3.75;;;3.35;;
32297;SDS011;18782;48.984;8.548;2023-05-02T02:19:48;4.22;;;3.50;;
32297;SDS011;18782;48.984;8.548;2023-05-02T02:22:19;7.00;;;3.75;;
32297;SDS011;18782;48.984;8.548;2023-05-02T02:24:49;5.15;;;3.25;;
32297;SDS011;18782;48.984;8.548;2023-05-02T02:27:19;3.95;;;3.30;;
32297;SDS011;18782;48.984;8.548;2023-05-02T02:29:47;5.55;;;3.47;;
32297;SDS011;18782;48.984;8.548;2023-05-02T02:32:16;5.15;;;3.50;;
32297;SDS011;18782;48.984;8.548;2023-05-02T02:34:44;4.07;;;3.35;;
32297;SDS011;18782;48.984;8.548;2023-05-02T02:37:13;6.07;;;4.45;;
32297;SDS011;18782;48.984;8.548;2023-05-02T02:39:48;3.92;;;3.22;;
32297;SDS011;18782;48.984;8.548;2023-05-02T02:42:24;3.75;;;3.33;;
32297;SDS011;18782;48.984;8.548;2023-05-02T02:45:03;4.50;;;3.13;;
32297;SDS011;18782;48.984;8.548;2023-05-02T02:47:45;4.13;;;3.42;;
32297;SDS011;18782;48.984;8.548;2023-05-02T02:50:19;4.10;;;3.25;;
32297;SDS011;18782;48.984;8.548;2023-05-02T02:52:52;5.53;;;3.55;;
32297;SDS011;18782;48.984;8.548;2023-05-02T02:55:28;5.03;;;3.08;;
32297;SDS011;18782;48.984;8.548;2023-05-02T02:58:06;5.68;;;2.90;;
32297;SDS011;18782;48.984;8.548;2023-05-02T03:03:16;5.15;;;3.05;;
32297;SDS011;18782;48.984;8.548;2023-05-02T03:05:47;5.55;;;3.20;;
32297;SDS011;18782;48.984;8.548;2023-05-02T03:08:15;4.20;;;3.63;;
32297;SDS011;18782;48.984;8.548;2023-05-02T03:10:42;4.03;;;3.30;;
32297;SDS011;18782;48.984;8.548;2023-05-02T03:13:11;5.25;;;3.47;;
32297;SDS011;18782;48.984;8.548;2023-05-02T03:15:52;3.83;;;3.42;;
32297;SDS011;18782;48.984;8.548;2023-05-02T03:18:40;4.65;;;3.30;;
32297;SDS011;18782;48.984;8.548;2023-05-02T03:21:08;4.43;;;3.30;;
32297;SDS011;18782;48.984;8.548;2023-05-02T03:23:35;4.18;;;3.33;;
32297;SDS011;18782;48.984;8.548;2023-05-02T03:26:03;4.18;;;3.28;;
32297;SDS011;18782;48.984;8.548;2023-05-02T03:28:31;4.13;;;3.17;;
32297;SDS011;18782;48.984;8.548;2023-05-02T03:30:59;4.60;;;3.55;;
32297;SDS011;18782;48.984;8.548;2023-05-02T03:33:31;5.97;;;3.90;;
32297;SDS011;18782;48.984;8.548;2023-05-02T03:36:00;6.05;;;3.60;;
32297;SDS011;18782;48.984;8.548;2023-05-02T03:38:28;4.30;;;3.80;;
32297;SDS011;18782;48.984;8.548;2023-05-02T03:41:01;4.55;;;3.60;;
32297;SDS011;18782;48.984;8.548;2023-05-02T03:43:29;5.57;;;3.60;;
32297;SDS011;18782;48.984;8.548;2023-05-02T03:45:57;5.75;;;3.60;;
32297;SDS011;18782;48.984;8.548;2023-05-02T03:48:30;4.40;;;3.78;;
32297;SDS011;18782;48.984;8.548;2023-05-02T03:50:58;4.53;;;3.50;;
32297;SDS011;18782;48.984;8.548;2023-05-02T03:53:29;4.30;;;3.72;;
32297;SDS011;18782;48.984;8.548;2023-05-02T03:55:58;4.55;;;3.63;;
32297;SDS011;18782;48.984;8.548;2023-05-02T03:58:36;4.47;;;3.50;;
32297;SDS011;18782;48.984;8.548;2023-05-02T04:01:07;4.97;;;3.70;;
32297;SDS011;18782;48.984;8.548;2023-05-02T04:03:41;4.68;;;3.83;;
32297;SDS011;18782;48.984;8.548;2023-05-02T04:06:12;4.63;;;3.70;;
32297;SDS011;18782;48.984;8.548;2023-05-02T04:08:42;5.65;;;3.80;;
32297;SDS011;18782;48.984;8.548;2023-05-02T04:11:10;5.55;;;4.05;;
32297;SDS011;18782;48.984;8.548;2023-05-02T04:13:38;5.53;;;4.15;;
32297;SDS011;18782;48.984;8.548;2023-05-02T04:16:06;13.40;;;7.65;;
32297;SDS011;18782;48.984;8.548;2023-05-02T04:18:36;20.27;;;10.90;;
32297;SDS011;18782;48.984;8.548;2023-05-02T04:21:06;15.18;;;8.73;;
32297;SDS011;18782;48.984;8.548;2023-05-02T04:23:37;9.80;;;5.60;;
32297;SDS011;18782;48.984;8.548;2023-05-02T04:26:05;11.07;;;6.60;;
32297;SDS011;18782;48.984;8.548;2023-05-02T04:28:40;6.80;;;5.18;;
32297;SDS011;18782;48.984;8.548;2023-05-02T04:31:10;7.43;;;4.35;;
32297;SDS011;18782;48.984;8.548;2023-05-02T04:33:38;5.72;;;4.22;;
32297;SDS011;18782;48.984;8.548;2023-05-02T04:36:07;6.00;;;3.95;;
32297;SDS011;18782;48.984;8.548;2023-05-02T04:38:39;5.32;;;3.95;;
32297;SDS011;18782;48.984;8.548;2023-05-02T04:41:07;4.93;;;4.03;;
32297;SDS011;18782;48.984;8.548;2023-05-02T04:43:40;5.50;;;4.30;;
32297;SDS011;18782;48.984;8.548;2023-05-02T04:46:08;4.43;;;3.95;;
32297;SDS011;18782;48.984;8.548;2023-05-02T04:48:37;5.82;;;4.35;;
32297;SDS011;18782;48.984;8.548;2023-05-02T04:51:07;6.90;;;3.97;;
32297;SDS011;18782;48.984;8.548;2023-05-02T04:53:35;4.70;;;3.40;;
32297;SDS011;18782;48.984;8.548;2023-05-02T04:56:05;5.90;;;3.58;;
32297;SDS011;18782;48.984;8.548;2023-05-02T04:58:35;4.00;;;3.45;;
32297;SDS011;18782;48.984;8.548;2023-05-02T05:01:06;5.55;;;4.05;;
32297;SDS011;18782;48.984;8.548;2023-05-02T05:03:34;4.93;;;4.13;;
32297;SDS011;18782;48.984;8.548;2023-05-02T05:06:03;5.13;;;3.33;;
32297;SDS011;18782;48.984;8.548;2023-05-02T05:08:31;4.13;;;3.28;;
32297;SDS011;18782;48.984;8.548;2023-05-02T05:10:59;4.70;;;3.80;;
32297;SDS011;18782;48.984;8.548;2023-05-02T05:13:28;8.63;;;4.95;;
32297;SDS011;18782;48.984;8.548;2023-05-02T05:15:57;9.85;;;6.07;;
32297;SDS011;18782;48.984;8.548;2023-05-02T05:18:28;4.90;;;4.10;;
32297;SDS011;18782;48.984;8.548;2023-05-02T05:20:55;5.15;;;3.92;;
32297;SDS011;18782;48.984;8.548;2023-05-02T05:23:23;6.28;;;4.05;;
32297;SDS011;18782;48.984;8.548;2023-05-02T05:25:51;5.85;;;4.70;;
32297;SDS011;18782;48.984;8.548;2023-05-02T05:28:18;4.20;;;3.78;;
32297;SDS011;18782;48.984;8.548;2023-05-02T05:30:47;4.60;;;3.97;;
32297;SDS011;18782;48.984;8.548;2023-05-02T05:33:18;6.87;;;4.33;;
32297;SDS011;18782;48.984;8.548;2023-05-02T05:35:47;4.65;;;3.45;;
32297;SDS011;18782;48.984;8.548;2023-05-02T05:38:15;4.25;;;3.38;;
32297;SDS011;18782;48.984;8.548;2023-05-02T05:40:44;5.15;;;3.95;;
32297;SDS011;18782;48.984;8.548;2023-05-02T05:43:15;6.90;;;3.75;;
32297;SDS011;18782;48.984;8.548;2023-05-02T05:45:43;7.05;;;3.80;;
32297;SDS011;18782;48.984;8.548;2023-05-02T05:48:12;4.07;;;3.65;;
32297;SDS011;18782;48.984;8.548;2023-05-02T05:50:44;5.27;;;4.27;;
32297;SDS011;18782;48.984;8.548;2023-05-02T05:53:11;5.00;;;4.20;;
32297;SDS011;18782;48.984;8.548;2023-05-02T05:55:40;5.85;;;4.03;;
32297;SDS011;18782;48.984;8.548;2023-05-02T05:58:08;5.63;;;4.20;;
32297;SDS011;18782;48.984;8.548;2023-05-02T06:00:37;6.75;;;4.80;;
32297;SDS011;18782;48.984;8.548;2023-05-02T06:03:06;4.97;;;4.30;;
32297;SDS011;18782;48.984;8.548;2023-05-02T06:05:37;6.15;;;4.80;;
32297;SDS011;18782;48.984;8.548;2023-05-02T06:08:06;5.35;;;4.25;;
32297;SDS011;18782;48.984;8.548;2023-05-02T06:10:33;5.95;;;3.92;;
32297;SDS011;18782;48.984;8.548;2023-05-02T06:13:01;5.40;;;4.60;;
32297;SDS011;18782;48.984;8.548;2023-05-02T06:15:33;6.20;;;4.13;;
32297;SDS011;18782;48.984;8.548;2023-05-02T06:18:03;4.70;;;4.05;;
32297;SDS011;18782;48.984;8.548;2023-05-02T06:20:31;4.40;;;4.00;;
32297;SDS011;18782;48.984;8.548;2023-05-02T06:23:04;4.90;;;3.90;;
32297;SDS011;18782;48.984;8.548;2023-05-02T06:25:36;5.07;;;4.30;;
32297;SDS011;18782;48.984;8.548;2023-05-02T06:28:04;4.32;;;3.75;;
32297;SDS011;18782;48.984;8.548;2023-05-02T06:30:32;5.93;;;3.60;;
32297;SDS011;18782;48.984;8.548;2023-05-02T06:33:02;5.03;;;4.27;;
32297;SDS011;18782;48.984;8.548;2023-05-02T06:35:30;4.50;;;3.70;;
32297;SDS011;18782;48.984;8.548;2023-05-02T06:37:58;5.18;;;3.97;;
32297;SDS011;18782;48.984;8.548;2023-05-02T06:40:27;4.35;;;3.80;;
32297;SDS011;18782;48.984;8.548;2023-05-02T06:42:55;4.68;;;4.05;;
32297;SDS011;18782;48.984;8.548;2023-05-02T06:45:22;6.10;;;4.03;;
32297;SDS011;18782;48.984;8.548;2023-05-02T06:47:50;5.28;;;4.10;;
32297;SDS011;18782;48.984;8.548;2023-05-02T06:50:18;6.60;;;4.65;;
32297;SDS011;18782;48.984;8.548;2023-05-02T06:52:46;6.57;;;4.88;;
32297;SDS011;18782;48.984;8.548;2023-05-02T06:55:14;5.10;;;4.60;;
32297;SDS011;18782;48.984;8.548;2023-05-02T06:57:43;8.20;;;6.57;;
32297;SDS011;18782;48.984;8.548;2023-05-02T07:00:11;6.47;;;4.88;;
32297;SDS011;18782;48.984;8.548;2023-05-02T07:02:39;6.47;;;4.82;;
32297;SDS011;18782;48.984;8.548;2023-05-02T07:05:07;5.20;;;4.70;;
32297;SDS011;18782;48.984;8.548;2023-05-02T07:07:35;7.13;;;5.10;;
32297;SDS011;18782;48.984;8.548;2023-05-02T07:10:03;6.40;;;4.63;;
32297;SDS011;18782;48.984;8.548;2023-05-02T07:12:31;6.07;;;5.43;;
32297;SDS011;18782;48.984;8.548;2023-05-02T07:15:00;6.45;;;5.65;;
32297;SDS011;18782;48.984;8.548;2023-05-02T07:17:28;7.78;;;5.53;;
32297;SDS011;18782;48.984;8.548;2023-05-02T07:19:56;8.13;;;6.38;;
32297;SDS011;18782;48.984;8.548;2023-05-02T07:22:23;11.98;;;6.88;;
32297;SDS011;18782;48.984;8.548;2023-05-02T07:24:56;7.55;;;6.07;;
32297;SDS011;18782;48.984;8.548;2023-05-02T07:27:23;7.00;;;6.07;;
32297;SDS011;18782;48.984;8.548;2023-05-02T07:29:51;7.32;;;6.45;;
32297;SDS011;18782;48.984;8.548;2023-05-02T07:32:20;7.70;;;6.40;;
32297;SDS011;18782;48.984;8.548;2023-05-02T07:34:50;10.18;;;8.07;;
32297;SDS011;18782;48.984;8.548;2023-05-02T07:37:19;12.07;;;7.97;;
32297;SDS011;18782;48.984;8.548;2023-05-02T07:39:46;11.02;;;8.70;;
32297;SDS011;18782;48.984;8.548;2023-05-02T07:42:14;14.25;;;9.98;;
32297;SDS011;18782;48.984;8.548;2023-05-02T07:44:42;12.13;;;9.65;;
32297;SDS011;18782;48.984;8.548;2023-05-02T07:47:09;11.40;;;10.02;;
32297;SDS011;18782;48.984;8.548;2023-05-02T07:49:38;12.20;;;10.48;;
32297;SDS011;18782;48.984;8.548;2023-05-02T07:52:06;11.55;;;10.35;;
32297;SDS011;18782;48.984;8.548;2023-05-02T07:54:33;13.25;;;11.18;;
32297;SDS011;18782;48.984;8.548;2023-05-02T07:57:01;14.60;;;12.45;;
32297;SDS011;18782;48.984;8.548;2023-05-02T07:59:30;19.85;;;15.50;;
32297;SDS011;18782;48.984;8.548;2023-05-02T08:01:58;20.67;;;16.50;;
32297;SDS011;18782;48.984;8.548;2023-05-02T08:04:25;22.02;;;17.60;;
32297;SDS011;18782;48.984;8.548;2023-05-02T08:06:55;20.38;;;18.05;;
32297;SDS011;18782;48.984;8.548;2023-05-02T08:09:22;23.30;;;18.38;;
32297;SDS011;18782;48.984;8.548;2023-05-02T08:11:50;19.27;;;17.08;;
32297;SDS011;18782;48.984;8.548;2023-05-02T08:14:17;22.83;;;17.95;;
32297;SDS011;18782;48.984;8.548;2023-05-02T08:16:45;21.15;;;17.83;;
32297;SDS011;18782;48.984;8.548;2023-05-02T08:19:13;22.48;;;18.33;;
32297;SDS011;18782;48.984;8.548;2023-05-02T08:21:41;23.50;;;19.40;;
32297;SDS011;18782;48.984;8.548;2023-05-02T08:24:10;25.85;;;22.15;;
32297;SDS011;18782;48.984;8.548;2023-05-02T08:26:38;27.40;;;21.60;;
32297;SDS011;18782;48.984;8.548;2023-05-02T08:29:05;25.48;;;20.63;;
32297;SDS011;18782;48.984;8.548;2023-05-02T08:31:33;23.08;;;20.48;;
32297;SDS011;18782;48.984;8.548;2023-05-02T08:34:01;25.70;;;19.92;;
32297;SDS011;18782;48.984;8.548;2023-05-02T08:36:28;24.92;;;19.33;;
32297;SDS011;18782;48.984;8.548;2023-05-02T08:38:57;22.83;;;19.05;;
32297;SDS011;18782;48.984;8.548;2023-05-02T08:41:26;27.42;;;19.58;;
32297;SDS011;18782;48.984;8.548;2023-05-02T08:43:55;24.00;;;18.58;;
32297;SDS011;18782;48.984;8.548;2023-05-02T08:46:23;21.83;;;17.55;;
32297;SDS011;18782;48.984;8.548;2023-05-02T08:48:52;23.83;;;19.33;;
32297;SDS011;18782;48.984;8.548;2023-05-02T08:51:20;23.00;;;18.30;;
32297;SDS011;18782;48.984;8.548;2023-05-02T08:53:50;23.75;;;18.55;;
32297;SDS011;18782;48.984;8.548;2023-05-02T08:56:18;27.42;;;21.52;;
32297;SDS011;18782;48.984;8.548;2023-05-02T08:58:48;23.02;;;19.08;;
32297;SDS011;18782;48.984;8.548;2023-05-02T09:01:17;28.10;;;22.48;;
32297;SDS011;18782;48.984;8.548;2023-05-02T09:03:47;24.83;;;19.90;;
32297;SDS011;18782;48.984;8.548;2023-05-02T09:06:15;24.60;;;19.75;;
32297;SDS011;18782;48.984;8.548;2023-05-02T09:08:45;26.40;;;21.40;;
32297;SDS011;18782;48.984;8.548;2023-05-02T09:11:18;27.27;;;21.10;;
32297;SDS011;18782;48.984;8.548;2023-05-02T09:13:46;24.52;;;20.42;;
32297;SDS011;18782;48.984;8.548;2023-05-02T09:16:17;22.67;;;19.52;;
32297;SDS011;18782;48.984;8.548;2023-05-02T09:18:48;27.92;;;22.77;;
32297;SDS011;18782;48.984;8.548;2023-05-02T09:21:17;25.35;;;21.40;;
32297;SDS011;18782;48.984;8.548;2023-05-02T09:23:48;23.83;;;20.13;;
32297;SDS011;18782;48.984;8.548;2023-05-02T09:26:17;26.52;;;21.80;;
32297;SDS011;18782;48.984;8.548;2023-05-02T09:28:46;25.95;;;21.75;;
32297;SDS011;18782;48.984;8.548;2023-05-02T09:31:17;29.40;;;22.73;;
32297;SDS011;18782;48.984;8.548;2023-05-02T09:34:07;28.02;;;23.20;;
32297;SDS011;18782;48.984;8.548;2023-05-02T09:36:38;24.25;;;19.73;;
32297;SDS011;18782;48.984;8.548;2023-05-02T09:39:08;26.45;;;21.05;;
32297;SDS011;18782;48.984;8.548;2023-05-02T09:41:38;25.52;;;20.42;;
32297;SDS011;18782;48.984;8.548;2023-05-02T09:44:09;24.85;;;21.60;;
32297;SDS011;18782;48.984;8.548;2023-05-02T09:46:41;24.55;;;19.10;;
32297;SDS011;18782;48.984;8.548;2023-05-02T09:49:09;36.95;;;21.90;;
32297;SDS011;18782;48.984;8.548;2023-05-02T09:51:39;25.05;;;20.88;;
32297;SDS011;18782;48.984;8.548;2023-05-02T09:54:09;26.33;;;21.50;;
32297;SDS011;18782;48.984;8.548;2023-05-02T09:56:50;25.08;;;20.15;;
32297;SDS011;18782;48.984;8.548;2023-05-02T09:59:20;26.65;;;22.95;;
32297;SDS011;18782;48.984;8.548;2023-05-02T10:01:53;23.65;;;19.15;;
32297;SDS011;18782;48.984;8.548;2023-05-02T10:04:22;26.50;;;22.50;;
32297;SDS011;18782;48.984;8.548;2023-05-02T10:06:51;22.33;;;19.35;;
32297;SDS011;18782;48.984;8.548;2023-05-02T10:09:20;27.00;;;22.13;;
32297;SDS011;18782;48.984;8.548;2023-05-02T10:11:49;25.40;;;20.35;;
32297;SDS011;18782;48.984;8.548;2023-05-02T10:14:21;29.77;;;23.55;;
32297;SDS011;18782;48.984;8.548;2023-05-02T10:16:54;29.90;;;24.10;;
32297;SDS011;18782;48.984;8.548;2023-05-02T10:19:29;28.35;;;23.13;;
32297;SDS011;18782;48.984;8.548;2023-05-02T10:21:58;30.27;;;23.17;;
32297;SDS011;18782;48.984;8.548;2023-05-02T10:24:27;25.20;;;20.88;;
32297;SDS011;18782;48.984;8.548;2023-05-02T10:26:57;24.52;;;20.52;;
32297;SDS011;18782;48.984;8.548;2023-05-02T10:29:27;23.48;;;20.02;;
32297;SDS011;18782;48.984;8.548;2023-05-02T10:31:55;26.42;;;22.30;;
32297;SDS011;18782;48.984;8.548;2023-05-02T10:34:24;25.38;;;21.73;;
32297;SDS011;18782;48.984;8.548;2023-05-02T10:36:53;30.55;;;25.65;;
32297;SDS011;18782;48.984;8.548;2023-05-02T10:39:21;28.90;;;24.30;;
32297;SDS011;18782;48.984;8.548;2023-05-02T10:41:50;26.50;;;22.27;;
32297;SDS011;18782;48.984;8.548;2023-05-02T10:44:31;29.60;;;21.30;;
32297;SDS011;18782;48.984;8.548;2023-05-02T10:47:00;24.15;;;20.90;;
32297;SDS011;18782;48.984;8.548;2023-05-02T10:49:28;21.65;;;19.35;;
32297;SDS011;18782;48.984;8.548;2023-05-02T10:51:56;22.65;;;18.65;;
32297;SDS011;18782;48.984;8.548;2023-05-02T10:54:24;20.92;;;17.17;;
32297;SDS011;18782;48.984;8.548;2023-05-02T10:57:05;23.85;;;18.75;;
32297;SDS011;18782;48.984;8.548;2023-05-02T10:59:35;23.55;;;19.15;;
32297;SDS011;18782;48.984;8.548;2023-05-02T11:02:04;20.40;;;17.55;;
32297;SDS011;18782;48.984;8.548;2023-05-02T11:05:00;22.73;;;17.92;;
32297;SDS011;18782;48.984;8.548;2023-05-02T11:07:30;21.65;;;17.83;;
32297;SDS011;18782;48.984;8.548;2023-05-02T11:18:24;19.92;;;17.20;;
32297;SDS011;18782;48.984;8.548;2023-05-02T11:20:52;23.08;;;17.65;;
32297;SDS011;18782;48.984;8.548;2023-05-02T11:35:37;16.80;;;13.10;;
32297;SDS011;18782;48.984;8.548;2023-05-02T11:38:10;18.08;;;14.57;;
32297;SDS011;18782;48.984;8.548;2023-05-02T11:40:39;19.48;;;14.63;;
32297;SDS011;18782;48.984;8.548;2023-05-02T11:43:13;16.25;;;13.40;;
32297;SDS011;18782;48.984;8.548;2023-05-02T11:45:41;18.75;;;13.55;;
32297;SDS011;18782;48.984;8.548;2023-05-02T11:48:11;16.52;;;13.30;;
32297;SDS011;18782;48.984;8.548;2023-05-02T11:50:40;16.15;;;13.43;;
32297;SDS011;18782;48.984;8.548;2023-05-02T11:53:15;17.00;;;13.95;;
32297;SDS011;18782;48.984;8.548;2023-05-02T11:55:45;14.68;;;12.10;;
32297;SDS011;18782;48.984;8.548;2023-05-02T11:58:14;14.23;;;11.35;;
32297;SDS011;18782;48.984;8.548;2023-05-02T12:00:43;15.77;;;12.55;;
32297;SDS011;18782;48.984;8.548;2023-05-02T12:03:21;16.25;;;13.32;;
32297;SDS011;18782;48.984;8.548;2023-05-02T12:05:50;15.32;;;12.27;;
32297;SDS011;18782;48.984;8.548;2023-05-02T12:08:21;17.05;;;13.02;;
32297;SDS011;18782;48.984;8.548;2023-05-02T12:10:51;16.42;;;13.00;;
32297;SDS011;18782;48.984;8.548;2023-05-02T12:13:20;14.98;;;13.02;;
32297;SDS011;18782;48.984;8.548;2023-05-02T12:15:50;11.70;;;10.13;;
32297;SDS011;18782;48.984;8.548;2023-05-02T12:18:21;17.90;;;11.32;;
32297;SDS011;18782;48.984;8.548;2023-05-02T12:20:50;13.18;;;11.80;;
32297;SDS011;18782;48.984;8.548;2023-05-02T12:23:20;14.48;;;10.23;;
32297;SDS011;18782;48.984;8.548;2023-05-02T12:25:49;13.07;;;11.02;;
32297;SDS011;18782;48.984;8.548;2023-05-02T12:28:16;13.57;;;9.98;;
32297;SDS011;18782;48.984;8.548;2023-05-02T12:30:46;11.75;;;9.32;;
32297;SDS011;18782;48.984;8.548;2023-05-02T12:33:14;11.70;;;9.45;;
32297;SDS011;18782;48.984;8.548;2023-05-02T12:35:44;11.30;;;8.95;;
32297;SDS011;18782;48.984;8.548;2023-05-02T12:38:13;10.48;;;7.97;;
32297;SDS011;18782;48.984;8.548;2023-05-02T12:40:45;10.32;;;8.50;;
32297;SDS011;18782;48.984;8.548;2023-05-02T12:43:14;10.33;;;7.57;;
32297;SDS011;18782;48.984;8.548;2023-05-02T12:45:42;10.70;;;8.73;;
32297;SDS011;18782;48.984;8.548;2023-05-02T12:48:16;9.48;;;8.45;;
32297;SDS011;18782;48.984;8.548;2023-05-02T12:50:49;9.82;;;7.85;;
32297;SDS011;18782;48.984;8.548;2023-05-02T12:56:07;9.68;;;8.68;;
32297;SDS011;18782;48.984;8.548;2023-05-02T12:58:42;11.57;;;7.85;;
32297;SDS011;18782;48.984;8.548;2023-05-02T13:01:11;11.43;;;8.57;;
32297;SDS011;18782;48.984;8.548;2023-05-02T13:03:38;7.50;;;6.47;;
32297;SDS011;18782;48.984;8.548;2023-05-02T13:06:08;8.60;;;7.32;;
32297;SDS011;18782;48.984;8.548;2023-05-02T13:08:36;9.43;;;7.45;;
32297;SDS011;18782;48.984;8.548;2023-05-02T13:11:04;6.65;;;5.72;;
32297;SDS011;18782;48.984;8.548;2023-05-02T13:13:32;8.60;;;6.28;;
32297;SDS011;18782;48.984;8.548;2023-05-02T13:16:00;9.75;;;6.47;;
32297;SDS011;18782;48.984;8.548;2023-05-02T13:18:29;8.55;;;6.97;;
32297;SDS011;18782;48.984;8.548;2023-05-02T13:20:56;6.97;;;5.75;;
32297;SDS011;18782;48.984;8.548;2023-05-02T13:23:25;7.40;;;6.10;;
32297;SDS011;18782;48.984;8.548;2023-05-02T13:25:53;7.05;;;6.35;;
32297;SDS011;18782;48.984;8.548;2023-05-02T13:28:21;8.40;;;5.80;;
32297;SDS011;18782;48.984;8.548;2023-05-02T13:30:48;6.88;;;5.85;;
32297;SDS011;18782;48.984;8.548;2023-05-02T13:33:16;8.02;;;6.40;;
32297;SDS011;18782;48.984;8.548;2023-05-02T13:35:44;7.78;;;5.70;;
32297;SDS011;18782;48.984;8.548;2023-05-02T13:38:12;6.45;;;5.43;;
32297;SDS011;18782;48.984;8.548;2023-05-02T13:40:41;7.63;;;6.45;;
32297;SDS011;18782;48.984;8.548;2023-05-02T13:43:08;7.53;;;6.57;;
32297;SDS011;18782;48.984;8.548;2023-05-02T13:45:36;7.03;;;5.80;;
32297;SDS011;18782;48.984;8.548;2023-05-02T13:48:04;7.13;;;5.68;;
32297;SDS011;18782;48.984;8.548;2023-05-02T13:50:32;7.00;;;5.47;;
32297;SDS011;18782;48.984;8.548;2023-05-02T13:53:02;8.13;;;5.53;;
32297;SDS011;18782;48.984;8.548;2023-05-02T13:55:30;6.57;;;4.80;;
32297;SDS011;18782;48.984;8.548;2023-05-02T13:57:59;7.93;;;4.47;;
32297;SDS011;18782;48.984;8.548;2023-05-02T14:00:26;7.28;;;4.57;;
32297;SDS011;18782;48.984;8.548;2023-05-02T14:02:54;4.97;;;4.00;;
32297;SDS011;18782;48.984;8.548;2023-05-02T14:05:22;4.90;;;3.53;;
32297;SDS011;18782;48.984;8.548;2023-05-02T14:07:49;4.93;;;3.22;;
32297;SDS011;18782;48.984;8.548;2023-05-02T14:10:17;4.45;;;2.88;;
32297;SDS011;18782;48.984;8.548;2023-05-02T14:12:45;3.40;;;2.85;;
32297;SDS011;18782;48.984;8.548;2023-05-02T14:15:14;4.47;;;3.60;;
32297;SDS011;18782;48.984;8.548;2023-05-02T14:17:42;4.68;;;3.78;;
32297;SDS011;18782;48.984;8.548;2023-05-02T14:20:10;4.53;;;3.33;;
32297;SDS011;18782;48.984;8.548;2023-05-02T14:22:38;2.97;;;2.67;;
32297;SDS011;18782;48.984;8.548;2023-05-02T14:25:06;4.15;;;3.30;;
32297;SDS011;18782;48.984;8.548;2023-05-02T14:27:34;5.60;;;3.55;;
32297;SDS011;18782;48.984;8.548;2023-05-02T14:30:01;4.88;;;3.15;;
32297;SDS011;18782;48.984;8.548;2023-05-02T14:32:31;5.35;;;2.80;;
32297;SDS011;18782;48.984;8.548;2023-05-02T14:34:59;3.22;;;2.47;;
32297;SDS011;18782;48.984;8.548;2023-05-02T14:37:26;3.85;;;2.42;;
32297;SDS011;18782;48.984;8.548;2023-05-02T14:39:54;2.55;;;2.20;;
32297;SDS011;18782;48.984;8.548;2023-05-02T14:42:24;3.15;;;2.55;;
32297;SDS011;18782;48.984;8.548;2023-05-02T14:44:51;3.10;;;2.67;;
32297;SDS011;18782;48.984;8.548;2023-05-02T14:47:19;3.15;;;2.25;;
32297;SDS011;18782;48.984;8.548;2023-05-02T14:49:49;3.90;;;2.10;;
32297;SDS011;18782;48.984;8.548;2023-05-02T14:52:17;2.45;;;2.13;;
32297;SDS011;18782;48.984;8.548;2023-05-02T14:54:45;2.40;;;2.00;;
32297;SDS011;18782;48.984;8.548;2023-05-02T14:57:13;2.55;;;2.13;;
32297;SDS011;18782;48.984;8.548;2023-05-02T14:59:41;3.00;;;1.90;;
32297;SDS011;18782;48.984;8.548;2023-05-02T15:02:08;2.70;;;2.20;;
32297;SDS011;18782;48.984;8.548;2023-05-02T15:04:36;3.00;;;2.40;;
32297;SDS011;18782;48.984;8.548;2023-05-02T15:07:05;3.30;;;2.65;;
32297;SDS011;18782;48.984;8.548;2023-05-02T15:09:33;4.20;;;2.60;;
32297;SDS011;18782;48.984;8.548;2023-05-02T15:12:01;2.88;;;2.10;;
32297;SDS011;18782;48.984;8.548;2023-05-02T15:14:28;3.25;;;2.30;;
32297;SDS011;18782;48.984;8.548;2023-05-02T15:16:56;2.30;;;1.80;;
32297;SDS011;18782;48.984;8.548;2023-05-02T15:19:24;3.80;;;2.20;;